createdAt,value
2022-12-31T00:01:06.803Z,12.10
2022-12-31T00:03:36.444Z,10.70
2022-12-31T00:06:14.325Z,8.50
2022-12-31T00:08:42.496Z,8.80
2022-12-31T00:11:10.763Z,7.70
2022-12-31T00:13:39.004Z,4.70
2022-12-31T00:16:12.666Z,3.60
2022-12-31T00:18:45.298Z,7.80
2022-12-31T00:21:14.188Z,2.50
2022-12-31T00:23:42.403Z,11.40
2022-12-31T00:26:13.272Z,5.30
2022-12-31T00:28:42.296Z,12.60
2022-12-31T00:31:12.049Z,1.00
2022-12-31T00:33:42.214Z,3.40
2022-12-31T00:36:13.685Z,12.10
2022-12-31T00:38:43.320Z,12.80
2022-12-31T00:41:11.787Z,22.50
2022-12-31T00:43:40.243Z,14.30
2022-12-31T00:46:09.916Z,22.30
2022-12-31T00:48:38.201Z,23.50
2022-12-31T00:51:10.951Z,20.20
2022-12-31T00:53:39.634Z,16.60
2022-12-31T00:56:10.024Z,10.30
2022-12-31T00:58:38.520Z,12.20
2022-12-31T01:01:10.875Z,9.20
2022-12-31T01:03:39.367Z,10.90
2022-12-31T01:06:09.825Z,9.10
2022-12-31T01:08:38.002Z,1.00
2022-12-31T01:11:23.167Z,7.90
2022-12-31T01:13:56.037Z,1.70
2022-12-31T01:16:27.182Z,10.50
2022-12-31T01:18:56.201Z,8.90
2022-12-31T01:21:25.788Z,15.70
2022-12-31T01:23:54.037Z,10.90
2022-12-31T01:26:22.909Z,12.80
2022-12-31T01:28:51.145Z,16.70
2022-12-31T01:31:21.406Z,11.50
2022-12-31T01:33:49.715Z,17.40
2022-12-31T01:36:25.327Z,12.70
2022-12-31T01:38:56.698Z,11.70
2022-12-31T01:41:26.555Z,14.30
2022-12-31T01:43:58.629Z,10.50
2022-12-31T01:46:30.280Z,6.90
2022-12-31T01:49:11.788Z,1.50
2022-12-31T01:51:41.909Z,1.00
2022-12-31T01:54:14.100Z,11.20
2022-12-31T01:56:44.385Z,16.70
2022-12-31T01:59:14.185Z,12.20
2022-12-31T02:01:42.517Z,7.10
2022-12-31T02:04:13.783Z,12.70
2022-12-31T02:06:47.210Z,4.10
2022-12-31T02:09:17.456Z,8.60
2022-12-31T02:11:45.593Z,10.50
2022-12-31T02:14:16.847Z,17.30
2022-12-31T02:16:53.741Z,6.50
2022-12-31T02:20:12.794Z,1.00
2022-12-31T02:23:14.255Z,18.00
2022-12-31T02:26:04.551Z,18.50
2022-12-31T02:28:56.265Z,16.50
2022-12-31T02:31:29.406Z,8.90
2022-12-31T02:34:03.297Z,6.30
2022-12-31T02:36:35.763Z,9.30
2022-12-31T02:39:05.575Z,18.60
2022-12-31T02:41:51.639Z,16.00
2022-12-31T02:44:24.593Z,14.50
2022-12-31T02:47:04.547Z,15.90
2022-12-31T02:49:43.087Z,15.10
2022-12-31T02:52:21.197Z,19.50
2022-12-31T02:54:57.960Z,15.80
2022-12-31T02:57:31.777Z,19.80
2022-12-31T03:00:20.776Z,17.60
2022-12-31T03:02:52.284Z,16.00
2022-12-31T03:05:23.948Z,16.50
2022-12-31T03:07:52.884Z,21.50
2022-12-31T03:10:21.914Z,19.40
2022-12-31T03:12:49.995Z,16.80
2022-12-31T03:15:21.115Z,21.50
2022-12-31T03:17:54.522Z,27.50
2022-12-31T03:20:42.126Z,25.30
2022-12-31T03:23:12.778Z,22.80
2022-12-31T03:25:40.146Z,22.30
2022-12-31T03:28:10.040Z,14.20
2022-12-31T03:30:40.653Z,1.30
2022-12-31T03:33:10.677Z,17.90
2022-12-31T03:35:40.498Z,26.50
2022-12-31T03:38:08.785Z,29.00
2022-12-31T03:40:40.042Z,13.00
2022-12-31T03:43:08.590Z,39.40
2022-12-31T03:45:36.930Z,36.00
2022-12-31T03:48:07.223Z,19.40
2022-12-31T03:50:37.115Z,30.20
2022-12-31T03:53:05.245Z,28.30
2022-12-31T03:55:33.402Z,27.50
2022-12-31T03:58:01.594Z,25.80
2022-12-31T04:00:29.912Z,35.40
2022-12-31T04:02:58.156Z,34.50
2022-12-31T04:05:26.360Z,36.50
2022-12-31T04:07:56.520Z,37.90
2022-12-31T04:10:24.731Z,41.70
2022-12-31T04:12:52.872Z,43.70
2022-12-31T04:15:22.616Z,44.80
2022-12-31T04:17:50.808Z,46.60
2022-12-31T04:20:19.266Z,41.60
2022-12-31T04:22:47.412Z,42.00
2022-12-31T04:25:16.966Z,40.40
2022-12-31T04:27:45.105Z,37.30
2022-12-31T04:30:14.822Z,39.50
2022-12-31T04:32:43.367Z,33.80
2022-12-31T04:35:12.197Z,35.30
2022-12-31T04:37:40.434Z,28.00
2022-12-31T04:40:10.048Z,35.10
2022-12-31T04:42:39.614Z,35.40
2022-12-31T04:45:09.037Z,33.70
2022-12-31T04:47:37.250Z,38.60
2022-12-31T04:50:06.332Z,40.30
2022-12-31T04:52:38.789Z,39.50
2022-12-31T04:55:10.768Z,38.10
2022-12-31T04:57:40.323Z,42.60
2022-12-31T05:00:09.826Z,46.70
2022-12-31T05:02:38.167Z,46.00
2022-12-31T05:05:07.291Z,49.20
2022-12-31T05:07:35.457Z,46.00
2022-12-31T05:10:03.621Z,46.20
2022-12-31T05:12:31.823Z,41.90
2022-12-31T05:15:01.371Z,43.00
2022-12-31T05:17:29.520Z,47.20
2022-12-31T05:19:57.655Z,45.80
2022-12-31T05:22:31.709Z,42.40
2022-12-31T05:25:00.696Z,43.80
2022-12-31T05:27:31.155Z,38.40
2022-12-31T05:30:01.094Z,40.80
2022-12-31T05:32:29.290Z,40.90
2022-12-31T05:34:58.164Z,30.40
2022-12-31T05:37:26.393Z,47.40
2022-12-31T05:39:54.530Z,48.50
2022-12-31T05:44:51.155Z,44.60
2022-12-31T05:47:21.003Z,44.90
2022-12-31T05:49:49.167Z,44.40
2022-12-31T05:52:17.465Z,48.60
2022-12-31T06:04:40.641Z,32.90
2022-12-31T06:09:37.260Z,45.00
2022-12-31T06:12:06.421Z,48.10
2022-12-31T06:19:31.662Z,41.90
2022-12-31T06:22:01.141Z,43.70
2022-12-31T06:24:29.256Z,45.40
2022-12-31T06:26:57.470Z,47.20
2022-12-31T06:29:25.754Z,42.60
2022-12-31T06:31:53.937Z,42.30
2022-12-31T06:34:22.067Z,47.70
2022-12-31T06:36:50.261Z,42.00
2022-12-31T06:39:19.836Z,40.60
2022-12-31T06:41:47.993Z,46.10
2022-12-31T06:44:16.296Z,46.60
2022-12-31T06:46:44.455Z,48.80
2022-12-31T06:49:12.893Z,48.70
2022-12-31T06:51:41.014Z,45.90
2022-12-31T06:54:09.178Z,50.50
2022-12-31T06:56:39.284Z,48.50
2022-12-31T06:59:08.059Z,43.40
2022-12-31T07:01:50.552Z,34.70
2022-12-31T07:04:49.164Z,40.20
2022-12-31T07:07:26.072Z,36.40
2022-12-31T07:10:02.613Z,41.60
2022-12-31T07:12:47.238Z,44.00
2022-12-31T07:15:21.123Z,46.70
2022-12-31T07:17:56.123Z,36.10
2022-12-31T07:20:24.861Z,47.60
2022-12-31T07:22:53.684Z,44.80
2022-12-31T07:25:23.481Z,41.10
2022-12-31T07:28:07.460Z,39.80
2022-12-31T07:30:43.961Z,41.00
2022-12-31T07:33:43.992Z,34.50
2022-12-31T07:36:22.701Z,32.60
2022-12-31T07:38:55.023Z,24.20
2022-12-31T07:41:39.283Z,38.50
2022-12-31T07:44:18.696Z,40.30
2022-12-31T07:46:55.481Z,38.00
2022-12-31T07:49:25.461Z,38.20
2022-12-31T07:51:54.153Z,43.10
2022-12-31T07:54:22.881Z,37.00
2022-12-31T07:56:51.896Z,42.60
2022-12-31T07:59:35.546Z,36.90
2022-12-31T08:02:12.079Z,30.70
2022-12-31T08:04:50.205Z,38.70
2022-12-31T08:07:24.729Z,39.20
2022-12-31T08:10:03.256Z,41.90
2022-12-31T08:12:35.878Z,40.60
2022-12-31T08:15:14.562Z,40.30
2022-12-31T08:17:43.353Z,39.90
2022-12-31T08:20:15.409Z,38.50
2022-12-31T08:23:08.067Z,36.90
2022-12-31T08:25:46.645Z,35.80
2022-12-31T08:28:21.066Z,39.40
2022-12-31T08:30:57.873Z,39.90
2022-12-31T08:33:34.720Z,36.40
2022-12-31T08:36:12.793Z,34.60
2022-12-31T08:38:49.090Z,37.00
2022-12-31T08:41:24.233Z,36.60
2022-12-31T08:44:06.020Z,41.30
2022-12-31T08:46:44.947Z,45.50
2022-12-31T08:49:14.777Z,44.90
2022-12-31T08:51:43.534Z,42.40
2022-12-31T08:54:13.269Z,34.50
2022-12-31T08:56:50.714Z,47.40
2022-12-31T08:59:35.572Z,47.30
2022-12-31T09:02:42.069Z,45.60
2022-12-31T09:05:21.699Z,41.40
2022-12-31T09:07:58.994Z,40.70
2022-12-31T09:10:33.181Z,39.30
2022-12-31T09:13:13.239Z,46.00
2022-12-31T09:15:44.883Z,46.50
2022-12-31T09:18:15.160Z,48.30
2022-12-31T09:20:44.602Z,54.00
2022-12-31T09:23:13.978Z,52.60
2022-12-31T09:25:50.869Z,57.00
2022-12-31T09:28:25.321Z,49.30
2022-12-31T09:30:59.833Z,44.60
2022-12-31T09:33:41.051Z,51.20
2022-12-31T09:36:14.168Z,55.50
2022-12-31T09:38:52.443Z,49.90
2022-12-31T09:41:46.171Z,44.90
2022-12-31T09:44:59.838Z,49.40
2022-12-31T09:47:57.884Z,47.90
2022-12-31T09:50:45.387Z,55.60
2022-12-31T09:53:45.824Z,41.70
2022-12-31T09:56:18.684Z,35.10
2022-12-31T09:58:57.753Z,31.40
2022-12-31T10:01:39.813Z,27.90
2022-12-31T10:04:35.671Z,36.00
2022-12-31T10:07:17.136Z,36.70
2022-12-31T10:10:00.683Z,37.50
2022-12-31T10:12:50.062Z,32.30
2022-12-31T10:15:53.127Z,43.70
2022-12-31T10:18:46.590Z,45.90
2022-12-31T10:21:33.680Z,40.50
2022-12-31T10:24:30.351Z,44.60
2022-12-31T10:27:12.900Z,42.70
2022-12-31T10:29:47.623Z,44.40
2022-12-31T10:32:24.935Z,48.10
2022-12-31T10:34:57.069Z,41.80
2022-12-31T10:37:30.291Z,50.20
2022-12-31T10:40:13.980Z,47.80
2022-12-31T10:43:37.333Z,39.90
2022-12-31T10:46:27.521Z,49.70
2022-12-31T10:49:38.051Z,45.10
2022-12-31T10:52:48.159Z,61.80
2022-12-31T10:55:51.387Z,44.10
2022-12-31T10:59:00.752Z,41.80
2022-12-31T11:01:42.810Z,49.00
2022-12-31T11:04:35.946Z,47.80
2022-12-31T11:07:33.676Z,63.00
2022-12-31T11:10:31.802Z,53.50
2022-12-31T11:13:45.847Z,51.90
2022-12-31T11:16:33.483Z,58.90
2022-12-31T11:19:08.506Z,54.30
2022-12-31T11:21:55.728Z,51.50
2022-12-31T11:24:37.993Z,57.70
2022-12-31T11:27:18.992Z,49.50
2022-12-31T11:30:04.921Z,52.10
2022-12-31T11:32:48.370Z,61.00
2022-12-31T11:35:38.763Z,59.90
2022-12-31T11:38:17.949Z,50.50
2022-12-31T11:40:56.068Z,46.50
2022-12-31T11:43:30.794Z,65.40
2022-12-31T11:46:33.624Z,59.90
2022-12-31T11:49:22.339Z,57.30
2022-12-31T11:52:08.195Z,56.00
2022-12-31T11:54:54.330Z,59.60
2022-12-31T11:57:27.684Z,57.10
2022-12-31T11:59:59.957Z,64.20
2022-12-31T12:02:33.979Z,66.00
2022-12-31T12:05:10.671Z,61.40
2022-12-31T12:07:39.772Z,64.50
2022-12-31T12:10:35.600Z,62.50
2022-12-31T12:13:14.819Z,66.00
2022-12-31T12:15:48.142Z,62.60
2022-12-31T12:18:27.444Z,60.50
2022-12-31T12:21:07.210Z,57.70
2022-12-31T12:23:35.721Z,49.80
2022-12-31T12:26:04.111Z,41.80
2022-12-31T12:28:44.494Z,39.70
2022-12-31T12:31:22.054Z,30.00
2022-12-31T12:33:52.954Z,29.40
2022-12-31T12:36:22.052Z,25.00
2022-12-31T12:39:00.979Z,14.40
2022-12-31T12:41:29.891Z,33.00
2022-12-31T12:44:08.907Z,20.10
2022-12-31T12:46:47.972Z,24.70
2022-12-31T12:49:24.057Z,25.20
2022-12-31T12:52:11.791Z,19.10
2022-12-31T12:54:55.438Z,17.10
2022-12-31T12:57:30.322Z,12.10
2022-12-31T13:00:07.606Z,10.90
2022-12-31T13:03:16.738Z,10.80
2022-12-31T13:06:06.976Z,12.70
2022-12-31T13:08:52.687Z,19.50
2022-12-31T13:11:33.728Z,18.90
2022-12-31T13:14:10.991Z,14.90
2022-12-31T13:16:46.333Z,21.40
2022-12-31T13:19:21.204Z,23.30
2022-12-31T13:21:58.460Z,17.40
2022-12-31T13:24:50.284Z,18.40
2022-12-31T13:27:23.390Z,17.20
2022-12-31T13:29:53.510Z,15.50
2022-12-31T13:32:28.847Z,18.80
2022-12-31T13:35:02.562Z,16.40
2022-12-31T13:37:37.737Z,19.50
2022-12-31T13:40:18.502Z,22.20
2022-12-31T13:42:55.415Z,16.20
2022-12-31T13:45:29.691Z,15.00
2022-12-31T13:48:01.958Z,15.90
2022-12-31T13:50:34.843Z,20.10
2022-12-31T13:53:22.123Z,19.40
2022-12-31T13:56:02.099Z,24.80
2022-12-31T13:58:36.790Z,28.90
2022-12-31T14:01:13.358Z,28.40
2022-12-31T14:03:48.921Z,29.70
2022-12-31T14:06:24.806Z,27.80
2022-12-31T14:08:55.001Z,26.10
2022-12-31T14:11:40.434Z,30.90
2022-12-31T14:14:16.693Z,25.60
2022-12-31T14:16:51.382Z,26.40
2022-12-31T14:19:36.519Z,27.70
2022-12-31T14:22:14.545Z,21.00
2022-12-31T14:24:47.679Z,22.70
2022-12-31T14:27:22.181Z,29.30
2022-12-31T14:29:52.963Z,26.40
2022-12-31T14:32:52.319Z,23.00
2022-12-31T14:35:41.452Z,31.30
2022-12-31T14:38:19.778Z,25.30
2022-12-31T14:41:01.813Z,29.80
2022-12-31T14:43:45.851Z,24.30
2022-12-31T14:46:26.011Z,24.10
2022-12-31T14:49:02.894Z,31.90
2022-12-31T14:51:31.560Z,23.60
2022-12-31T14:54:00.085Z,20.40
2022-12-31T14:56:41.427Z,28.20
2022-12-31T14:59:25.822Z,24.70
2022-12-31T15:01:54.440Z,20.50
2022-12-31T15:04:33.280Z,22.40
2022-12-31T15:07:12.105Z,30.50
2022-12-31T15:10:04.135Z,30.00
2022-12-31T15:12:50.980Z,31.60
2022-12-31T15:15:43.090Z,32.60
2022-12-31T15:18:36.837Z,30.50
2022-12-31T15:21:21.826Z,43.10
2022-12-31T15:23:49.985Z,40.60
2022-12-31T15:26:24.872Z,43.60
2022-12-31T15:29:02.321Z,43.40
2022-12-31T15:31:31.951Z,43.70
2022-12-31T15:34:02.302Z,39.60
2022-12-31T15:36:32.174Z,38.50
2022-12-31T15:39:23.076Z,38.50
2022-12-31T15:42:35.664Z,48.10
2022-12-31T15:44:49.807Z,45.80
2022-12-31T15:47:26.884Z,47.70
2022-12-31T15:49:55.730Z,42.80
2022-12-31T15:52:27.671Z,38.90
2022-12-31T15:54:57.925Z,36.50
2022-12-31T15:57:33.007Z,38.30
2022-12-31T16:00:07.471Z,37.10
2022-12-31T16:02:39.031Z,41.80
2022-12-31T16:05:07.978Z,42.60
2022-12-31T16:07:36.401Z,43.10
2022-12-31T16:10:05.667Z,40.00
2022-12-31T16:12:42.488Z,45.10
2022-12-31T16:15:23.163Z,43.30
2022-12-31T16:18:02.132Z,45.80
2022-12-31T16:20:33.750Z,38.10
2022-12-31T16:23:04.452Z,39.40
2022-12-31T16:25:34.143Z,38.00
2022-12-31T16:28:03.933Z,42.20
2022-12-31T16:30:35.981Z,43.40
2022-12-31T16:33:06.625Z,39.20
2022-12-31T16:35:37.532Z,29.50
2022-12-31T16:38:14.098Z,44.90
2022-12-31T16:40:43.673Z,41.40
2022-12-31T16:43:29.122Z,37.00
2022-12-31T16:46:09.612Z,42.70
2022-12-31T16:48:40.731Z,32.00
2022-12-31T16:51:18.148Z,43.60
2022-12-31T16:53:47.186Z,47.20
2022-12-31T16:56:25.109Z,45.50
2022-12-31T16:59:00.400Z,46.10
2022-12-31T17:01:33.207Z,46.10
2022-12-31T17:04:04.568Z,46.40
2022-12-31T17:06:33.767Z,43.70
2022-12-31T17:09:20.636Z,43.40
2022-12-31T17:11:54.363Z,50.20
2022-12-31T17:14:24.357Z,50.60
2022-12-31T17:17:03.220Z,51.50
2022-12-31T17:19:39.904Z,50.70
2022-12-31T17:22:14.273Z,50.80
2022-12-31T17:24:42.838Z,48.00
2022-12-31T17:27:11.623Z,47.70
2022-12-31T17:29:39.847Z,53.90
2022-12-31T17:32:29.343Z,51.80
2022-12-31T17:34:58.869Z,46.40
2022-12-31T17:37:29.026Z,49.90
2022-12-31T17:40:24.553Z,45.80
2022-12-31T17:42:49.568Z,54.60
2022-12-31T17:45:21.608Z,46.00
2022-12-31T17:47:54.034Z,51.50
2022-12-31T17:50:24.119Z,45.10
2022-12-31T17:52:54.360Z,46.80
2022-12-31T17:55:22.726Z,48.20
2022-12-31T17:57:54.207Z,44.00
2022-12-31T18:00:25.783Z,45.40
2022-12-31T18:02:55.655Z,45.00
2022-12-31T18:05:25.230Z,48.90
2022-12-31T18:07:53.416Z,45.20
2022-12-31T18:10:24.039Z,49.90
2022-12-31T18:12:52.584Z,50.60
2022-12-31T18:15:23.091Z,48.80
2022-12-31T18:17:52.020Z,46.40
2022-12-31T18:20:21.576Z,48.80
2022-12-31T18:22:50.095Z,45.20
2022-12-31T18:25:20.707Z,42.90
2022-12-31T18:27:49.095Z,45.10
2022-12-31T18:30:17.758Z,43.60
2022-12-31T18:32:46.947Z,47.30
2022-12-31T18:35:33.401Z,48.10
2022-12-31T18:38:08.142Z,45.90
2022-12-31T18:40:36.348Z,48.20
2022-12-31T18:43:05.294Z,46.80
2022-12-31T18:45:33.680Z,43.30
2022-12-31T18:48:01.941Z,46.60
2022-12-31T18:50:30.170Z,43.30
2022-12-31T18:52:58.308Z,46.30
2022-12-31T18:55:33.855Z,45.10
2022-12-31T18:58:02.025Z,45.90
2022-12-31T19:00:30.177Z,46.70
2022-12-31T19:03:00.191Z,43.00
2022-12-31T19:05:30.715Z,44.20
2022-12-31T19:07:59.368Z,44.10
2022-12-31T19:10:29.518Z,41.60
2022-12-31T19:13:00.318Z,39.80
2022-12-31T19:15:33.227Z,47.60
2022-12-31T19:18:01.741Z,49.40
2022-12-31T19:20:30.873Z,50.50
2022-12-31T19:23:00.513Z,53.30
2022-12-31T19:25:33.774Z,53.60
2022-12-31T19:28:02.400Z,51.70
2022-12-31T19:30:32.404Z,52.40
2022-12-31T19:33:01.043Z,54.90
2022-12-31T19:35:29.509Z,54.80
2022-12-31T19:37:58.459Z,50.90
2022-12-31T19:40:30.769Z,56.70
2022-12-31T19:42:59.399Z,53.70
2022-12-31T19:45:29.620Z,57.90
2022-12-31T19:47:58.589Z,52.90
2022-12-31T19:50:29.387Z,52.60
2022-12-31T19:52:59.473Z,57.70
2022-12-31T19:55:28.967Z,60.40
2022-12-31T19:57:57.117Z,56.70
2022-12-31T20:00:25.262Z,55.30
2022-12-31T20:02:53.875Z,56.60
2022-12-31T20:05:22.183Z,55.80
2022-12-31T20:07:50.517Z,62.90
2022-12-31T20:10:31.142Z,56.00
2022-12-31T20:13:01.062Z,59.10
2022-12-31T20:15:29.624Z,64.00
2022-12-31T20:17:58.777Z,61.30
2022-12-31T20:20:29.231Z,58.40
2022-12-31T20:22:57.862Z,59.80
2022-12-31T20:25:26.386Z,57.10
2022-12-31T20:27:55.585Z,61.00
2022-12-31T20:30:25.622Z,58.30
2022-12-31T20:32:53.821Z,58.80
2022-12-31T20:35:21.955Z,62.30
2022-12-31T20:37:50.094Z,65.40
2022-12-31T20:40:18.406Z,64.30
2022-12-31T20:42:46.574Z,65.70
2022-12-31T20:45:14.835Z,58.60
2022-12-31T20:47:44.371Z,66.60
2022-12-31T20:50:13.008Z,58.10
2022-12-31T20:52:41.335Z,63.40
2022-12-31T20:55:10.719Z,65.60
2022-12-31T20:57:40.612Z,59.80
2022-12-31T21:00:10.030Z,59.50
2022-12-31T21:02:43.089Z,63.10
2022-12-31T21:05:14.228Z,62.40
2022-12-31T21:07:42.491Z,64.20
2022-12-31T21:10:12.585Z,67.60
2022-12-31T21:12:45.383Z,60.90
2022-12-31T21:15:14.540Z,57.20
2022-12-31T21:17:42.765Z,53.00
2022-12-31T21:20:13.172Z,58.30
2022-12-31T21:22:41.350Z,55.70
2022-12-31T21:25:11.140Z,53.30
2022-12-31T21:27:39.337Z,57.10
2022-12-31T21:30:19.342Z,53.80
2022-12-31T21:32:48.194Z,54.60
2022-12-31T21:38:07.711Z,58.50
2022-12-31T21:40:35.874Z,54.40
2022-12-31T21:43:04.032Z,57.40
2022-12-31T21:45:32.336Z,59.10
2022-12-31T21:48:17.883Z,58.90
2022-12-31T21:50:48.575Z,53.50
2022-12-31T21:53:23.520Z,59.80
2022-12-31T21:56:11.489Z,52.10
2022-12-31T21:58:42.325Z,52.30
2022-12-31T22:01:34.032Z,55.20
2022-12-31T22:04:12.871Z,55.20
2022-12-31T22:06:53.946Z,52.10
2022-12-31T22:09:22.216Z,53.10
2022-12-31T22:11:50.373Z,52.90
2022-12-31T22:14:18.808Z,50.40
2022-12-31T22:16:47.145Z,49.90
2022-12-31T22:19:15.727Z,50.30
2022-12-31T22:21:43.943Z,52.10
2022-12-31T22:24:14.273Z,52.60
2022-12-31T22:26:46.670Z,55.60
2022-12-31T22:29:15.546Z,57.90
2022-12-31T22:31:45.759Z,56.80
2022-12-31T22:34:13.959Z,55.00
2022-12-31T22:36:42.166Z,49.80
2022-12-31T22:39:44.448Z,46.90
2022-12-31T22:42:05.292Z,46.40
2022-12-31T22:44:33.474Z,53.10
2022-12-31T22:47:01.869Z,50.50
2022-12-31T22:49:30.100Z,53.00
2022-12-31T22:52:00.847Z,52.60
2022-12-31T22:54:32.482Z,54.60
2022-12-31T22:57:01.268Z,60.60
2022-12-31T22:59:29.491Z,51.90
2022-12-31T23:01:57.601Z,52.50
2022-12-31T23:04:25.832Z,55.80
2022-12-31T23:06:54.047Z,55.50
2022-12-31T23:09:51.686Z,55.20
2022-12-31T23:12:21.261Z,56.30
2022-12-31T23:15:06.725Z,56.20
2022-12-31T23:17:52.135Z,54.90
2022-12-31T23:20:39.784Z,54.20
2022-12-31T23:23:11.828Z,52.70
2022-12-31T23:25:42.764Z,52.70
2022-12-31T23:28:14.103Z,51.30
2022-12-31T23:30:43.466Z,50.30
2022-12-31T23:33:16.857Z,53.70
2022-12-31T23:35:45.607Z,51.20
2022-12-31T23:38:16.666Z,55.00
2022-12-31T23:40:44.880Z,56.20
2022-12-31T23:43:20.748Z,55.70
2022-12-31T23:45:50.356Z,54.30
2022-12-31T23:48:18.554Z,51.10
2022-12-31T23:50:52.961Z,53.80
2022-12-31T23:53:22.417Z,54.60
2022-12-31T23:55:50.570Z,52.20
2022-12-31T23:58:21.055Z,53.90
